sensor_id;sensor_type;location;lat;lon;timestamp;temperature;humidity
70079;DHT22;57451;52.496;13.456;2023-07-31T00:00:03;17.20;70.00
70079;DHT22;57451;52.496;13.456;2023-07-31T00:02:32;17.20;70.20
70079;DHT22;57451;52.496;13.456;2023-07-31T00:05:00;17.10;70.20
70079;DHT22;57451;52.496;13.456;2023-07-31T00:07:27;17.10;70.00
70079;DHT22;57451;52.496;13.456;2023-07-31T00:09:55;17.10;70.20
70079;DHT22;57451;52.496;13.456;2023-07-31T00:12:24;17.10;69.50
70079;DHT22;57451;52.496;13.456;2023-07-31T00:14:51;17.00;69.90
70079;DHT22;57451;52.496;13.456;2023-07-31T00:17:18;17.00;69.90
70079;DHT22;57451;52.496;13.456;2023-07-31T00:19:47;17.00;70.40
70079;DHT22;57451;52.496;13.456;2023-07-31T00:22:17;17.00;70.10
70079;DHT22;57451;52.496;13.456;2023-07-31T00:24:45;16.90;70.20
70079;DHT22;57451;52.496;13.456;2023-07-31T00:27:12;16.90;70.40
70079;DHT22;57451;52.496;13.456;2023-07-31T00:29:39;16.90;70.60
70079;DHT22;57451;52.496;13.456;2023-07-31T00:32:07;16.90;70.80
70079;DHT22;57451;52.496;13.456;2023-07-31T00:34:37;16.90;70.90
70079;DHT22;57451;52.496;13.456;2023-07-31T00:37:06;16.90;70.90
70079;DHT22;57451;52.496;13.456;2023-07-31T00:39:34;16.90;71.10
70079;DHT22;57451;52.496;13.456;2023-07-31T00:42:03;16.80;71.00
70079;DHT22;57451;52.496;13.456;2023-07-31T00:44:32;16.80;71.00
70079;DHT22;57451;52.496;13.456;2023-07-31T00:47:00;16.80;71.20
70079;DHT22;57451;52.496;13.456;2023-07-31T00:49:28;16.80;71.40
70079;DHT22;57451;52.496;13.456;2023-07-31T00:51:55;16.80;71.70
70079;DHT22;57451;52.496;13.456;2023-07-31T00:54:26;16.80;72.00
70079;DHT22;57451;52.496;13.456;2023-07-31T00:56:54;16.80;71.90
70079;DHT22;57451;52.496;13.456;2023-07-31T00:59:22;16.80;71.70
70079;DHT22;57451;52.496;13.456;2023-07-31T01:01:49;16.80;72.00
70079;DHT22;57451;52.496;13.456;2023-07-31T01:04:17;16.80;72.20
70079;DHT22;57451;52.496;13.456;2023-07-31T01:06:52;16.80;72.30
70079;DHT22;57451;52.496;13.456;2023-07-31T01:09:31;16.80;72.40
70079;DHT22;57451;52.496;13.456;2023-07-31T01:12:03;16.80;72.70
70079;DHT22;57451;52.496;13.456;2023-07-31T01:14:30;16.80;72.70
70079;DHT22;57451;52.496;13.456;2023-07-31T01:16:58;16.80;73.20
70079;DHT22;57451;52.496;13.456;2023-07-31T01:19:26;16.80;73.40
70079;DHT22;57451;52.496;13.456;2023-07-31T01:22:10;16.80;73.20
70079;DHT22;57451;52.496;13.456;2023-07-31T01:24:54;16.80;73.00
70079;DHT22;57451;52.496;13.456;2023-07-31T01:27:25;16.80;73.00
70079;DHT22;57451;52.496;13.456;2023-07-31T01:30:00;16.80;72.60
70079;DHT22;57451;52.496;13.456;2023-07-31T01:32:31;16.80;73.20
70079;DHT22;57451;52.496;13.456;2023-07-31T01:35:00;16.80;73.20
70079;DHT22;57451;52.496;13.456;2023-07-31T01:37:28;16.80;73.30
70079;DHT22;57451;52.496;13.456;2023-07-31T01:39:56;16.80;73.00
70079;DHT22;57451;52.496;13.456;2023-07-31T01:42:24;16.80;73.50
70079;DHT22;57451;52.496;13.456;2023-07-31T01:44:52;16.80;73.40
70079;DHT22;57451;52.496;13.456;2023-07-31T01:47:19;16.80;73.50
70079;DHT22;57451;52.496;13.456;2023-07-31T01:49:47;16.80;73.40
70079;DHT22;57451;52.496;13.456;2023-07-31T01:52:14;16.80;73.50
70079;DHT22;57451;52.496;13.456;2023-07-31T01:54:41;16.80;72.90
70079;DHT22;57451;52.496;13.456;2023-07-31T01:57:09;16.80;73.30
70079;DHT22;57451;52.496;13.456;2023-07-31T01:59:38;16.80;73.10
70079;DHT22;57451;52.496;13.456;2023-07-31T02:02:06;16.80;73.40
70079;DHT22;57451;52.496;13.456;2023-07-31T02:04:33;16.80;72.80
70079;DHT22;57451;52.496;13.456;2023-07-31T02:07:03;16.80;73.10
70079;DHT22;57451;52.496;13.456;2023-07-31T02:09:30;16.80;73.00
70079;DHT22;57451;52.496;13.456;2023-07-31T02:11:59;16.80;72.60
70079;DHT22;57451;52.496;13.456;2023-07-31T02:14:26;16.80;73.20
70079;DHT22;57451;52.496;13.456;2023-07-31T02:16:55;16.90;73.90
70079;DHT22;57451;52.496;13.456;2023-07-31T02:19:22;16.90;74.00
70079;DHT22;57451;52.496;13.456;2023-07-31T02:21:50;16.90;74.00
70079;DHT22;57451;52.496;13.456;2023-07-31T02:24:17;16.90;73.20
70079;DHT22;57451;52.496;13.456;2023-07-31T02:26:44;16.90;73.30
70079;DHT22;57451;52.496;13.456;2023-07-31T02:29:12;16.90;73.70
70079;DHT22;57451;52.496;13.456;2023-07-31T02:31:39;16.90;73.70
70079;DHT22;57451;52.496;13.456;2023-07-31T02:34:08;16.90;73.80
70079;DHT22;57451;52.496;13.456;2023-07-31T02:36:36;16.90;73.90
70079;DHT22;57451;52.496;13.456;2023-07-31T02:39:04;16.90;73.90
70079;DHT22;57451;52.496;13.456;2023-07-31T02:41:31;16.90;74.10
70079;DHT22;57451;52.496;13.456;2023-07-31T02:43:58;16.90;74.10
70079;DHT22;57451;52.496;13.456;2023-07-31T02:46:26;16.90;74.00
70079;DHT22;57451;52.496;13.456;2023-07-31T02:48:54;16.90;74.00
70079;DHT22;57451;52.496;13.456;2023-07-31T02:51:23;16.90;74.10
70079;DHT22;57451;52.496;13.456;2023-07-31T02:53:51;16.80;74.10
70079;DHT22;57451;52.496;13.456;2023-07-31T02:56:18;16.80;74.20
70079;DHT22;57451;52.496;13.456;2023-07-31T02:58:46;16.80;74.20
70079;DHT22;57451;52.496;13.456;2023-07-31T03:01:13;16.80;74.30
70079;DHT22;57451;52.496;13.456;2023-07-31T03:03:41;16.80;74.60
70079;DHT22;57451;52.496;13.456;2023-07-31T03:06:08;16.80;74.70
70079;DHT22;57451;52.496;13.456;2023-07-31T03:08:37;16.80;74.80
70079;DHT22;57451;52.496;13.456;2023-07-31T03:11:05;16.80;74.90
70079;DHT22;57451;52.496;13.456;2023-07-31T03:13:32;16.80;74.80
70079;DHT22;57451;52.496;13.456;2023-07-31T03:15:59;16.70;75.00
70079;DHT22;57451;52.496;13.456;2023-07-31T03:18:27;16.80;75.00
70079;DHT22;57451;52.496;13.456;2023-07-31T03:20:54;16.70;75.20
70079;DHT22;57451;52.496;13.456;2023-07-31T03:23:22;16.70;75.20
70079;DHT22;57451;52.496;13.456;2023-07-31T03:25:57;16.70;75.10
70079;DHT22;57451;52.496;13.456;2023-07-31T03:28:28;16.70;75.10
70079;DHT22;57451;52.496;13.456;2023-07-31T03:30:55;16.70;75.00
70079;DHT22;57451;52.496;13.456;2023-07-31T03:33:23;16.70;74.90
70079;DHT22;57451;52.496;13.456;2023-07-31T03:35:50;16.70;74.60
70079;DHT22;57451;52.496;13.456;2023-07-31T03:38:18;16.70;75.00
70079;DHT22;57451;52.496;13.456;2023-07-31T03:40:45;16.70;74.60
70079;DHT22;57451;52.496;13.456;2023-07-31T03:43:15;16.70;74.50
70079;DHT22;57451;52.496;13.456;2023-07-31T03:45:42;16.70;74.60
70079;DHT22;57451;52.496;13.456;2023-07-31T03:48:11;16.70;74.80
70079;DHT22;57451;52.496;13.456;2023-07-31T03:50:38;16.70;75.00
70079;DHT22;57451;52.496;13.456;2023-07-31T03:53:06;16.70;74.80
70079;DHT22;57451;52.496;13.456;2023-07-31T03:55:33;16.70;75.00
70079;DHT22;57451;52.496;13.456;2023-07-31T03:58:00;16.70;74.40
70079;DHT22;57451;52.496;13.456;2023-07-31T04:00:29;16.70;74.80
70079;DHT22;57451;52.496;13.456;2023-07-31T04:02:56;16.80;74.80
70079;DHT22;57451;52.496;13.456;2023-07-31T04:05:24;16.80;74.70
70079;DHT22;57451;52.496;13.456;2023-07-31T04:07:51;16.70;74.90
70079;DHT22;57451;52.496;13.456;2023-07-31T04:10:19;16.70;74.70
70079;DHT22;57451;52.496;13.456;2023-07-31T04:12:46;16.70;74.50
70079;DHT22;57451;52.496;13.456;2023-07-31T04:15:14;16.70;74.90
70079;DHT22;57451;52.496;13.456;2023-07-31T04:17:42;16.80;74.90
70079;DHT22;57451;52.496;13.456;2023-07-31T04:20:10;16.80;74.50
70079;DHT22;57451;52.496;13.456;2023-07-31T04:22:39;16.80;75.10
70079;DHT22;57451;52.496;13.456;2023-07-31T04:25:07;16.70;75.10
70079;DHT22;57451;52.496;13.456;2023-07-31T04:27:34;16.80;75.20
70079;DHT22;57451;52.496;13.456;2023-07-31T04:30:02;16.80;75.10
70079;DHT22;57451;52.496;13.456;2023-07-31T04:32:29;16.80;74.80
70079;DHT22;57451;52.496;13.456;2023-07-31T04:34:58;16.80;75.00
70079;DHT22;57451;52.496;13.456;2023-07-31T04:37:25;16.80;75.00
70079;DHT22;57451;52.496;13.456;2023-07-31T04:39:53;16.80;74.90
70079;DHT22;57451;52.496;13.456;2023-07-31T04:42:20;16.80;75.00
70079;DHT22;57451;52.496;13.456;2023-07-31T04:44:47;16.80;75.40
70079;DHT22;57451;52.496;13.456;2023-07-31T04:47:14;16.80;74.90
70079;DHT22;57451;52.496;13.456;2023-07-31T04:49:42;16.80;75.10
70079;DHT22;57451;52.496;13.456;2023-07-31T04:52:10;16.80;75.10
70079;DHT22;57451;52.496;13.456;2023-07-31T04:54:38;16.80;75.10
70079;DHT22;57451;52.496;13.456;2023-07-31T04:57:06;16.80;75.10
70079;DHT22;57451;52.496;13.456;2023-07-31T04:59:33;16.80;75.40
70079;DHT22;57451;52.496;13.456;2023-07-31T05:02:01;16.80;75.60
70079;DHT22;57451;52.496;13.456;2023-07-31T05:04:28;16.80;75.60
70079;DHT22;57451;52.496;13.456;2023-07-31T05:06:56;16.80;75.70
70079;DHT22;57451;52.496;13.456;2023-07-31T05:09:24;16.80;75.50
70079;DHT22;57451;52.496;13.456;2023-07-31T05:11:52;16.90;75.60
70079;DHT22;57451;52.496;13.456;2023-07-31T05:14:19;16.90;75.60
70079;DHT22;57451;52.496;13.456;2023-07-31T05:16:47;16.90;75.60
70079;DHT22;57451;52.496;13.456;2023-07-31T05:19:15;16.90;75.60
70079;DHT22;57451;52.496;13.456;2023-07-31T05:21:42;16.90;75.80
70079;DHT22;57451;52.496;13.456;2023-07-31T05:24:09;16.90;75.90
70079;DHT22;57451;52.496;13.456;2023-07-31T05:26:38;16.90;75.80
70079;DHT22;57451;52.496;13.456;2023-07-31T05:29:06;17.00;76.00
70079;DHT22;57451;52.496;13.456;2023-07-31T05:31:33;17.00;75.80
70079;DHT22;57451;52.496;13.456;2023-07-31T05:34:01;17.00;75.80
70079;DHT22;57451;52.496;13.456;2023-07-31T05:36:29;17.00;75.70
70079;DHT22;57451;52.496;13.456;2023-07-31T05:38:56;17.00;75.60
70079;DHT22;57451;52.496;13.456;2023-07-31T05:41:23;17.00;75.70
70079;DHT22;57451;52.496;13.456;2023-07-31T05:43:52;17.10;75.70
70079;DHT22;57451;52.496;13.456;2023-07-31T05:46:19;17.10;75.90
70079;DHT22;57451;52.496;13.456;2023-07-31T05:48:47;17.00;75.80
70079;DHT22;57451;52.496;13.456;2023-07-31T05:51:14;17.10;75.90
70079;DHT22;57451;52.496;13.456;2023-07-31T05:53:42;17.10;75.50
70079;DHT22;57451;52.496;13.456;2023-07-31T05:56:09;17.10;75.20
70079;DHT22;57451;52.496;13.456;2023-07-31T05:58:36;17.10;75.70
70079;DHT22;57451;52.496;13.456;2023-07-31T06:01:05;17.00;75.90
70079;DHT22;57451;52.496;13.456;2023-07-31T06:03:32;17.10;76.10
70079;DHT22;57451;52.496;13.456;2023-07-31T06:06:00;17.10;75.90
70079;DHT22;57451;52.496;13.456;2023-07-31T06:08:27;17.10;76.30
70079;DHT22;57451;52.496;13.456;2023-07-31T06:10:55;17.10;76.00
70079;DHT22;57451;52.496;13.456;2023-07-31T06:13:22;17.10;76.20
70079;DHT22;57451;52.496;13.456;2023-07-31T06:15:49;17.20;76.20
70079;DHT22;57451;52.496;13.456;2023-07-31T06:18:19;17.10;76.00
70079;DHT22;57451;52.496;13.456;2023-07-31T06:20:46;17.20;76.00
70079;DHT22;57451;52.496;13.456;2023-07-31T06:23:14;17.20;76.30
70079;DHT22;57451;52.496;13.456;2023-07-31T06:25:42;17.20;76.50
70079;DHT22;57451;52.496;13.456;2023-07-31T06:28:09;17.20;76.40
70079;DHT22;57451;52.496;13.456;2023-07-31T06:30:36;17.20;76.50
70079;DHT22;57451;52.496;13.456;2023-07-31T06:33:04;17.30;76.20
70079;DHT22;57451;52.496;13.456;2023-07-31T06:35:33;17.30;76.20
70079;DHT22;57451;52.496;13.456;2023-07-31T06:38:00;17.30;76.20
70079;DHT22;57451;52.496;13.456;2023-07-31T06:40:29;17.30;76.20
70079;DHT22;57451;52.496;13.456;2023-07-31T06:42:57;17.30;76.30
70079;DHT22;57451;52.496;13.456;2023-07-31T06:45:24;17.30;76.30
70079;DHT22;57451;52.496;13.456;2023-07-31T06:47:51;17.30;76.80
70079;DHT22;57451;52.496;13.456;2023-07-31T06:50:19;17.30;76.90
70079;DHT22;57451;52.496;13.456;2023-07-31T06:52:48;17.30;77.10
70079;DHT22;57451;52.496;13.456;2023-07-31T06:55:17;17.30;77.10
70079;DHT22;57451;52.496;13.456;2023-07-31T06:57:46;17.40;77.00
70079;DHT22;57451;52.496;13.456;2023-07-31T07:00:14;17.40;76.80
70079;DHT22;57451;52.496;13.456;2023-07-31T07:02:41;17.50;76.30
70079;DHT22;57451;52.496;13.456;2023-07-31T07:05:09;17.50;75.90
70079;DHT22;57451;52.496;13.456;2023-07-31T07:07:37;17.50;76.30
70079;DHT22;57451;52.496;13.456;2023-07-31T07:10:06;17.50;76.40
70079;DHT22;57451;52.496;13.456;2023-07-31T07:12:34;17.50;76.20
70079;DHT22;57451;52.496;13.456;2023-07-31T07:15:03;17.50;76.10
70079;DHT22;57451;52.496;13.456;2023-07-31T07:17:30;17.50;76.00
70079;DHT22;57451;52.496;13.456;2023-07-31T07:19:58;17.50;75.70
70079;DHT22;57451;52.496;13.456;2023-07-31T07:22:26;17.40;75.80
70079;DHT22;57451;52.496;13.456;2023-07-31T07:24:54;17.40;76.00
70079;DHT22;57451;52.496;13.456;2023-07-31T07:27:23;17.50;75.90
70079;DHT22;57451;52.496;13.456;2023-07-31T07:29:51;17.50;76.10
70079;DHT22;57451;52.496;13.456;2023-07-31T07:32:21;17.50;76.30
70079;DHT22;57451;52.496;13.456;2023-07-31T07:34:49;17.50;76.50
70079;DHT22;57451;52.496;13.456;2023-07-31T07:37:16;17.60;76.20
70079;DHT22;57451;52.496;13.456;2023-07-31T07:39:44;17.60;76.30
70079;DHT22;57451;52.496;13.456;2023-07-31T07:42:11;17.70;76.10
70079;DHT22;57451;52.496;13.456;2023-07-31T07:44:40;17.70;76.20
70079;DHT22;57451;52.496;13.456;2023-07-31T07:47:07;17.70;76.20
70079;DHT22;57451;52.496;13.456;2023-07-31T07:49:35;17.80;76.10
70079;DHT22;57451;52.496;13.456;2023-07-31T07:52:03;17.80;76.50
70079;DHT22;57451;52.496;13.456;2023-07-31T07:54:31;17.80;76.00
70079;DHT22;57451;52.496;13.456;2023-07-31T07:56:59;17.80;76.20
70079;DHT22;57451;52.496;13.456;2023-07-31T07:59:26;17.80;75.90
70079;DHT22;57451;52.496;13.456;2023-07-31T08:01:55;17.90;75.80
70079;DHT22;57451;52.496;13.456;2023-07-31T08:04:22;17.90;75.60
70079;DHT22;57451;52.496;13.456;2023-07-31T08:06:50;18.00;75.60
70079;DHT22;57451;52.496;13.456;2023-07-31T08:09:17;17.90;75.10
70079;DHT22;57451;52.496;13.456;2023-07-31T08:11:44;17.90;75.30
70079;DHT22;57451;52.496;13.456;2023-07-31T08:14:12;17.90;75.50
70079;DHT22;57451;52.496;13.456;2023-07-31T08:16:39;18.00;75.60
70079;DHT22;57451;52.496;13.456;2023-07-31T08:19:08;18.00;75.70
70079;DHT22;57451;52.496;13.456;2023-07-31T08:21:36;18.10;75.70
70079;DHT22;57451;52.496;13.456;2023-07-31T08:24:03;18.10;75.80
70079;DHT22;57451;52.496;13.456;2023-07-31T08:26:31;18.10;75.70
70079;DHT22;57451;52.496;13.456;2023-07-31T08:28:58;18.10;75.60
70079;DHT22;57451;52.496;13.456;2023-07-31T08:31:26;18.10;75.60
70079;DHT22;57451;52.496;13.456;2023-07-31T08:33:54;18.10;75.80
70079;DHT22;57451;52.496;13.456;2023-07-31T08:36:22;18.10;76.00
70079;DHT22;57451;52.496;13.456;2023-07-31T08:38:50;18.10;76.20
70079;DHT22;57451;52.496;13.456;2023-07-31T08:41:17;18.10;76.60
70079;DHT22;57451;52.496;13.456;2023-07-31T08:43:46;18.10;76.80
70079;DHT22;57451;52.496;13.456;2023-07-31T08:46:13;18.10;76.40
70079;DHT22;57451;52.496;13.456;2023-07-31T08:48:42;18.20;76.40
70079;DHT22;57451;52.496;13.456;2023-07-31T08:51:10;18.20;76.40
70079;DHT22;57451;52.496;13.456;2023-07-31T08:53:39;18.20;76.30
70079;DHT22;57451;52.496;13.456;2023-07-31T08:56:07;18.20;76.20
70079;DHT22;57451;52.496;13.456;2023-07-31T08:58:35;18.10;76.30
70079;DHT22;57451;52.496;13.456;2023-07-31T09:01:04;18.20;76.20
70079;DHT22;57451;52.496;13.456;2023-07-31T09:03:34;18.10;76.20
70079;DHT22;57451;52.496;13.456;2023-07-31T09:06:03;18.20;76.30
70079;DHT22;57451;52.496;13.456;2023-07-31T09:08:33;18.30;76.20
70079;DHT22;57451;52.496;13.456;2023-07-31T09:11:02;18.30;75.90
70079;DHT22;57451;52.496;13.456;2023-07-31T09:13:33;18.40;75.60
70079;DHT22;57451;52.496;13.456;2023-07-31T09:16:00;18.40;75.30
70079;DHT22;57451;52.496;13.456;2023-07-31T09:18:28;18.40;75.10
70079;DHT22;57451;52.496;13.456;2023-07-31T09:21:02;18.40;75.30
70079;DHT22;57451;52.496;13.456;2023-07-31T09:23:40;18.40;75.10
70079;DHT22;57451;52.496;13.456;2023-07-31T09:26:09;18.40;74.90
70079;DHT22;57451;52.496;13.456;2023-07-31T09:28:37;18.40;74.80
70079;DHT22;57451;52.496;13.456;2023-07-31T09:31:04;18.40;74.90
70079;DHT22;57451;52.496;13.456;2023-07-31T09:33:32;18.50;74.80
70079;DHT22;57451;52.496;13.456;2023-07-31T09:35:59;18.50;74.70
70079;DHT22;57451;52.496;13.456;2023-07-31T09:38:28;18.50;74.80
70079;DHT22;57451;52.496;13.456;2023-07-31T09:40:55;18.50;74.70
70079;DHT22;57451;52.496;13.456;2023-07-31T09:43:27;18.50;74.60
70079;DHT22;57451;52.496;13.456;2023-07-31T09:45:55;18.50;74.70
70079;DHT22;57451;52.496;13.456;2023-07-31T09:48:24;18.50;74.70
70079;DHT22;57451;52.496;13.456;2023-07-31T09:50:54;18.50;75.10
70079;DHT22;57451;52.496;13.456;2023-07-31T09:53:28;18.40;75.10
70079;DHT22;57451;52.496;13.456;2023-07-31T09:55:58;18.40;75.10
70079;DHT22;57451;52.496;13.456;2023-07-31T09:58:28;18.40;74.80
70079;DHT22;57451;52.496;13.456;2023-07-31T10:00:58;18.40;74.70
70079;DHT22;57451;52.496;13.456;2023-07-31T10:03:27;18.40;75.00
70079;DHT22;57451;52.496;13.456;2023-07-31T10:05:57;18.40;74.90
70079;DHT22;57451;52.496;13.456;2023-07-31T10:08:27;18.40;75.00
70079;DHT22;57451;52.496;13.456;2023-07-31T10:10:59;18.40;75.00
70079;DHT22;57451;52.496;13.456;2023-07-31T10:13:31;18.50;74.90
70079;DHT22;57451;52.496;13.456;2023-07-31T10:16:00;18.50;75.00
70079;DHT22;57451;52.496;13.456;2023-07-31T10:18:28;18.50;74.80
70079;DHT22;57451;52.496;13.456;2023-07-31T10:20:57;18.50;74.60
70079;DHT22;57451;52.496;13.456;2023-07-31T10:23:24;18.50;74.70
70079;DHT22;57451;52.496;13.456;2023-07-31T10:25:53;18.50;75.00
70079;DHT22;57451;52.496;13.456;2023-07-31T10:28:21;18.60;74.70
70079;DHT22;57451;52.496;13.456;2023-07-31T10:30:51;18.60;74.60
70079;DHT22;57451;52.496;13.456;2023-07-31T10:33:19;18.70;74.70
70079;DHT22;57451;52.496;13.456;2023-07-31T10:35:47;18.70;74.70
70079;DHT22;57451;52.496;13.456;2023-07-31T10:38:15;18.70;75.40
70079;DHT22;57451;52.496;13.456;2023-07-31T10:40:43;18.70;75.50
70079;DHT22;57451;52.496;13.456;2023-07-31T10:43:23;18.80;75.70
70079;DHT22;57451;52.496;13.456;2023-07-31T10:45:53;18.80;75.70
70079;DHT22;57451;52.496;13.456;2023-07-31T10:48:21;18.90;75.90
70079;DHT22;57451;52.496;13.456;2023-07-31T10:50:51;19.00;75.30
70079;DHT22;57451;52.496;13.456;2023-07-31T10:53:23;19.00;75.00
70079;DHT22;57451;52.496;13.456;2023-07-31T10:55:51;19.10;75.30
70079;DHT22;57451;52.496;13.456;2023-07-31T10:58:20;19.30;74.60
70079;DHT22;57451;52.496;13.456;2023-07-31T11:00:48;19.50;74.60
70079;DHT22;57451;52.496;13.456;2023-07-31T11:03:18;19.60;74.10
70079;DHT22;57451;52.496;13.456;2023-07-31T11:05:51;19.70;73.60
70079;DHT22;57451;52.496;13.456;2023-07-31T11:08:22;19.90;72.90
70079;DHT22;57451;52.496;13.456;2023-07-31T11:10:50;20.00;72.40
70079;DHT22;57451;52.496;13.456;2023-07-31T11:13:18;20.10;70.50
70079;DHT22;57451;52.496;13.456;2023-07-31T11:15:45;20.10;69.70
70079;DHT22;57451;52.496;13.456;2023-07-31T11:18:13;20.20;69.50
70079;DHT22;57451;52.496;13.456;2023-07-31T11:20:42;20.20;69.60
70079;DHT22;57451;52.496;13.456;2023-07-31T11:23:10;20.30;68.70
70079;DHT22;57451;52.496;13.456;2023-07-31T11:25:39;20.40;68.70
70079;DHT22;57451;52.496;13.456;2023-07-31T11:28:10;20.40;68.30
70079;DHT22;57451;52.496;13.456;2023-07-31T11:30:39;20.40;66.90
70079;DHT22;57451;52.496;13.456;2023-07-31T11:33:10;20.40;66.70
70079;DHT22;57451;52.496;13.456;2023-07-31T11:35:43;20.50;67.10
70079;DHT22;57451;52.496;13.456;2023-07-31T11:38:14;20.50;66.00
70079;DHT22;57451;52.496;13.456;2023-07-31T11:40:47;20.50;65.60
70079;DHT22;57451;52.496;13.456;2023-07-31T11:43:15;20.60;65.40
70079;DHT22;57451;52.496;13.456;2023-07-31T11:45:46;20.60;64.50
70079;DHT22;57451;52.496;13.456;2023-07-31T11:48:21;20.60;63.20
70079;DHT22;57451;52.496;13.456;2023-07-31T11:50:52;20.60;64.00
70079;DHT22;57451;52.496;13.456;2023-07-31T11:53:25;20.70;64.30
70079;DHT22;57451;52.496;13.456;2023-07-31T11:55:54;20.70;63.90
70079;DHT22;57451;52.496;13.456;2023-07-31T11:58:22;20.60;64.00
70079;DHT22;57451;52.496;13.456;2023-07-31T12:00:50;20.70;64.80
70079;DHT22;57451;52.496;13.456;2023-07-31T12:03:18;20.70;64.10
70079;DHT22;57451;52.496;13.456;2023-07-31T12:05:47;20.70;63.80
70079;DHT22;57451;52.496;13.456;2023-07-31T12:08:16;20.70;64.20
70079;DHT22;57451;52.496;13.456;2023-07-31T12:10:43;20.70;64.10
70079;DHT22;57451;52.496;13.456;2023-07-31T12:13:20;20.60;64.50
70079;DHT22;57451;52.496;13.456;2023-07-31T12:15:47;20.60;64.70
70079;DHT22;57451;52.496;13.456;2023-07-31T12:18:19;20.50;64.10
70079;DHT22;57451;52.496;13.456;2023-07-31T12:20:48;20.50;64.20
70079;DHT22;57451;52.496;13.456;2023-07-31T12:23:19;20.50;64.10
70079;DHT22;57451;52.496;13.456;2023-07-31T12:26:01;20.50;64.10
70079;DHT22;57451;52.496;13.456;2023-07-31T12:28:29;20.60;64.70
70079;DHT22;57451;52.496;13.456;2023-07-31T12:30:57;20.60;64.20
70079;DHT22;57451;52.496;13.456;2023-07-31T12:33:31;20.70;64.20
70079;DHT22;57451;52.496;13.456;2023-07-31T12:36:01;20.70;63.60
70079;DHT22;57451;52.496;13.456;2023-07-31T12:38:30;20.70;64.10
70079;DHT22;57451;52.496;13.456;2023-07-31T12:40:57;20.70;64.00
70079;DHT22;57451;52.496;13.456;2023-07-31T12:43:25;20.80;64.80
70079;DHT22;57451;52.496;13.456;2023-07-31T12:45:54;20.90;64.40
70079;DHT22;57451;52.496;13.456;2023-07-31T12:48:23;21.00;63.60
70079;DHT22;57451;52.496;13.456;2023-07-31T12:50:50;21.00;63.60
70079;DHT22;57451;52.496;13.456;2023-07-31T12:53:18;21.00;63.20
70079;DHT22;57451;52.496;13.456;2023-07-31T12:55:47;21.00;63.20
70079;DHT22;57451;52.496;13.456;2023-07-31T12:58:14;21.00;63.40
70079;DHT22;57451;52.496;13.456;2023-07-31T13:00:41;21.00;63.20
70079;DHT22;57451;52.496;13.456;2023-07-31T13:03:09;21.00;63.10
70079;DHT22;57451;52.496;13.456;2023-07-31T13:05:38;21.10;63.10
70079;DHT22;57451;52.496;13.456;2023-07-31T13:08:05;21.20;63.20
70079;DHT22;57451;52.496;13.456;2023-07-31T13:10:33;21.10;62.80
70079;DHT22;57451;52.496;13.456;2023-07-31T13:13:01;21.10;62.90
70079;DHT22;57451;52.496;13.456;2023-07-31T13:15:29;21.20;63.30
70079;DHT22;57451;52.496;13.456;2023-07-31T13:17:56;21.20;63.00
70079;DHT22;57451;52.496;13.456;2023-07-31T13:20:23;21.10;62.40
70079;DHT22;57451;52.496;13.456;2023-07-31T13:22:51;21.10;63.00
70079;DHT22;57451;52.496;13.456;2023-07-31T13:25:18;21.10;62.80
70079;DHT22;57451;52.496;13.456;2023-07-31T13:27:45;21.10;63.40
70079;DHT22;57451;52.496;13.456;2023-07-31T13:30:14;21.10;63.00
70079;DHT22;57451;52.496;13.456;2023-07-31T13:32:41;21.00;63.40
70079;DHT22;57451;52.496;13.456;2023-07-31T13:35:09;21.00;63.50
70079;DHT22;57451;52.496;13.456;2023-07-31T13:37:39;20.90;63.60
70079;DHT22;57451;52.496;13.456;2023-07-31T13:40:07;20.90;63.70
70079;DHT22;57451;52.496;13.456;2023-07-31T13:42:35;20.90;63.80
70079;DHT22;57451;52.496;13.456;2023-07-31T13:45:02;21.00;64.40
70079;DHT22;57451;52.496;13.456;2023-07-31T13:47:35;21.10;63.80
70079;DHT22;57451;52.496;13.456;2023-07-31T13:50:05;21.20;64.00
70079;DHT22;57451;52.496;13.456;2023-07-31T13:52:32;21.20;63.60
70079;DHT22;57451;52.496;13.456;2023-07-31T13:55:00;21.30;62.90
70079;DHT22;57451;52.496;13.456;2023-07-31T13:57:27;21.40;63.40
70079;DHT22;57451;52.496;13.456;2023-07-31T13:59:55;21.50;63.50
70079;DHT22;57451;52.496;13.456;2023-07-31T14:02:22;21.50;62.70
70079;DHT22;57451;52.496;13.456;2023-07-31T14:04:51;21.60;61.50
70079;DHT22;57451;52.496;13.456;2023-07-31T14:07:18;21.60;61.50
70079;DHT22;57451;52.496;13.456;2023-07-31T14:09:46;21.50;61.90
70079;DHT22;57451;52.496;13.456;2023-07-31T14:12:13;21.60;62.10
70079;DHT22;57451;52.496;13.456;2023-07-31T14:15:01;21.60;61.40
70079;DHT22;57451;52.496;13.456;2023-07-31T14:17:28;21.60;61.80
70079;DHT22;57451;52.496;13.456;2023-07-31T14:19:57;21.70;62.30
70079;DHT22;57451;52.496;13.456;2023-07-31T14:22:28;21.70;62.40
70079;DHT22;57451;52.496;13.456;2023-07-31T14:24:57;21.80;62.40
70079;DHT22;57451;52.496;13.456;2023-07-31T14:27:24;21.80;62.30
70079;DHT22;57451;52.496;13.456;2023-07-31T14:29:51;21.80;61.90
70079;DHT22;57451;52.496;13.456;2023-07-31T14:32:20;21.70;62.40
70079;DHT22;57451;52.496;13.456;2023-07-31T14:34:48;21.80;62.00
70079;DHT22;57451;52.496;13.456;2023-07-31T14:37:17;21.70;62.30
70079;DHT22;57451;52.496;13.456;2023-07-31T14:39:44;21.70;62.20
70079;DHT22;57451;52.496;13.456;2023-07-31T14:42:11;21.70;62.00
70079;DHT22;57451;52.496;13.456;2023-07-31T14:44:39;21.70;62.10
70079;DHT22;57451;52.496;13.456;2023-07-31T14:47:06;21.70;62.40
70079;DHT22;57451;52.496;13.456;2023-07-31T14:49:33;21.70;62.20
70079;DHT22;57451;52.496;13.456;2023-07-31T14:52:01;21.70;61.50
70079;DHT22;57451;52.496;13.456;2023-07-31T14:54:29;21.70;61.90
70079;DHT22;57451;52.496;13.456;2023-07-31T14:56:57;21.70;61.70
70079;DHT22;57451;52.496;13.456;2023-07-31T14:59:24;21.70;61.00
70079;DHT22;57451;52.496;13.456;2023-07-31T15:01:52;21.70;61.70
70079;DHT22;57451;52.496;13.456;2023-07-31T15:04:19;21.70;61.00
70079;DHT22;57451;52.496;13.456;2023-07-31T15:06:46;21.70;61.00
70079;DHT22;57451;52.496;13.456;2023-07-31T15:09:14;21.70;61.30
70079;DHT22;57451;52.496;13.456;2023-07-31T15:11:42;21.70;60.80
70079;DHT22;57451;52.496;13.456;2023-07-31T15:14:10;21.60;61.10
70079;DHT22;57451;52.496;13.456;2023-07-31T15:16:39;21.60;61.20
70079;DHT22;57451;52.496;13.456;2023-07-31T15:19:06;21.50;61.70
70079;DHT22;57451;52.496;13.456;2023-07-31T15:21:34;21.50;61.80